Time;durP1;ratioP1;P1;durP2;ratioP2;P2;SDS_P1;SDS_P2;PMS_P1;PMS_P2;Temp;Humidity;BMP_temperature;BMP_pressure;BME280_temperature;BME280_humidity;BME280_pressure;Samples;Min_cycle;Max_cycle;Signal;HPM_P1;HPM_P2
2023/09/11 00:01:25;;;;;;;17.38;9.88;;;;;;;;;;5035054;28;20446;-31
2023/09/11 00:03:50;;;;;;;21.57;10.23;;;;;;;;;;5034970;28;20043;-31
2023/09/11 00:06:16;;;;;;;21.45;10.25;;;;;;;;;;5034555;28;20251;-32
2023/09/11 00:08:42;;;;;;;15.75;9.93;;;;;;;;;;5034848;28;20021;-31
2023/09/11 00:11:07;;;;;;;18.67;10.32;;;;;;;;;;5034615;28;20026;-31
2023/09/11 00:13:32;;;;;;;19.38;10.20;;;;;;;;;;5034505;28;20018;-31
2023/09/11 00:15:58;;;;;;;21.60;10.32;;;;;;;;;;5034677;28;20030;-31
2023/09/11 00:18:23;;;;;;;24.63;10.88;;;;;;;;;;5034406;28;20028;-32
2023/09/11 00:20:49;;;;;;;20.95;10.48;;;;;;;;;;5034588;28;20060;-32
2023/09/11 00:23:14;;;;;;;19.10;10.55;;;;;;;;;;5034879;28;20024;-31
2023/09/11 00:25:39;;;;;;;18.88;10.38;;;;;;;;;;5034328;28;20048;-32
2023/09/11 00:28:05;;;;;;;19.70;9.87;;;;;;;;;;5034264;28;20080;-31
2023/09/11 00:30:30;;;;;;;18.98;9.95;;;;;;;;;;5034317;28;20314;-32
2023/09/11 00:32:55;;;;;;;16.63;9.53;;;;;;;;;;5034242;28;20464;-34
2023/09/11 00:35:20;;;;;;;18.48;9.88;;;;;;;;;;5033972;28;20022;-32
2023/09/11 00:37:46;;;;;;;17.42;9.80;;;;;;;;;;5034066;28;20021;-32
2023/09/11 00:40:11;;;;;;;23.40;9.93;;;;;;;;;;5034017;28;20032;-31
2023/09/11 00:42:36;;;;;;;19.08;9.50;;;;;;;;;;5033964;28;20283;-33
2023/09/11 00:45:02;;;;;;;15.73;10.17;;;;;;;;;;5034214;28;20018;-31
2023/09/11 00:47:27;;;;;;;18.55;9.48;;;;;;;;;;5033823;28;20361;-32
2023/09/11 00:49:54;;;;;;;17.90;9.70;;;;;;;;;;5016101;28;20026;-32
2023/09/11 00:52:19;;;;;;;20.10;9.88;;;;;;;;;;5033766;28;20029;-32
2023/09/11 00:54:44;;;;;;;21.25;10.00;;;;;;;;;;5034112;28;20022;-31
2023/09/11 00:57:10;;;;;;;17.20;9.63;;;;;;;;;;5033701;28;20126;-32
2023/09/11 00:59:35;;;;;;;19.83;10.02;;;;;;;;;;5033520;28;20041;-31
2023/09/11 01:02:01;;;;;;;20.23;9.87;;;;;;;;;;5033988;28;20093;-31
2023/09/11 01:04:26;;;;;;;22.58;9.57;;;;;;;;;;5033504;28;20316;-31
2023/09/11 01:06:51;;;;;;;20.60;10.47;;;;;;;;;;5033911;28;20025;-32
2023/09/11 01:09:17;;;;;;;19.93;9.93;;;;;;;;;;5033566;28;20264;-31
2023/09/11 01:11:42;;;;;;;22.48;10.32;;;;;;;;;;5033784;28;20256;-31
2023/09/11 01:14:07;;;;;;;19.33;10.47;;;;;;;;;;5034126;28;20048;-32
2023/09/11 01:16:50;;;;;;;19.27;10.73;;;;;;;;;;5033966;28;20594;-31
2023/09/11 01:19:34;;;;;;;18.38;10.32;;;;;;;;;;5033502;28;20346;-31
2023/09/11 01:22:13;;;;;;;26.10;10.63;;;;;;;;;;5033687;28;20479;-31
2023/09/11 01:25:01;;;;;;;13.45;9.85;;;;;;;;;;5033979;28;20037;-32
2023/09/11 01:27:38;;;;;;;18.13;10.65;;;;;;;;;;5019965;28;20039;-32
2023/09/11 01:30:03;;;;;;;19.30;10.25;;;;;;;;;;5033270;28;20460;-32
2023/09/11 01:32:28;;;;;;;16.23;10.65;;;;;;;;;;5033903;28;20022;-32
2023/09/11 01:34:54;;;;;;;21.25;10.52;;;;;;;;;;5033852;28;20018;-31
2023/09/11 01:37:19;;;;;;;22.20;10.93;;;;;;;;;;5033861;28;20080;-32
2023/09/11 01:39:44;;;;;;;20.27;10.40;;;;;;;;;;5015611;28;20467;-32
2023/09/11 01:42:13;;;;;;;24.73;10.80;;;;;;;;;;5034436;28;20603;-32
2023/09/11 01:44:46;;;;;;;18.88;10.77;;;;;;;;;;5037867;28;20256;-32
2023/09/11 01:47:12;;;;;;;18.40;11.00;;;;;;;;;;5037245;28;20017;-32
2023/09/11 01:49:38;;;;;;;20.58;10.73;;;;;;;;;;5037176;28;20164;-32
2023/09/11 01:52:04;;;;;;;19.45;10.98;;;;;;;;;;5037147;28;20492;-35
2023/09/11 01:54:29;;;;;;;21.90;11.38;;;;;;;;;;5037081;28;20152;-31
2023/09/11 01:56:55;;;;;;;19.60;10.95;;;;;;;;;;5037189;28;20112;-30
2023/09/11 01:59:20;;;;;;;24.80;11.47;;;;;;;;;;5036877;28;20049;-32
2023/09/11 02:01:45;;;;;;;18.27;11.18;;;;;;;;;;5037015;28;20335;-31
2023/09/11 02:04:10;;;;;;;21.20;11.77;;;;;;;;;;5036900;28;20036;-30
2023/09/11 02:06:36;;;;;;;21.23;11.80;;;;;;;;;;5036892;28;20092;-30
2023/09/11 02:09:02;;;;;;;25.33;11.90;;;;;;;;;;5036802;28;20036;-31
2023/09/11 02:11:28;;;;;;;16.95;11.02;;;;;;;;;;5037046;28;20029;-31
2023/09/11 02:13:53;;;;;;;21.42;10.95;;;;;;;;;;5036984;28;20376;-31
2023/09/11 02:16:18;;;;;;;17.93;11.83;;;;;;;;;;5036670;28;20024;-31
2023/09/11 02:18:44;;;;;;;20.33;12.07;;;;;;;;;;5036629;28;20264;-32
2023/09/11 02:21:09;;;;;;;25.73;12.07;;;;;;;;;;5036643;28;20821;-31
2023/09/11 02:23:34;;;;;;;21.80;11.77;;;;;;;;;;5036790;28;20028;-31
2023/09/11 02:26:00;;;;;;;30.33;13.20;;;;;;;;;;5036549;28;20494;-31
2023/09/11 02:28:26;;;;;;;21.33;12.70;;;;;;;;;;5036686;28;20037;-31
2023/09/11 02:30:51;;;;;;;22.15;12.85;;;;;;;;;;5036422;28;20029;-30
2023/09/11 02:33:17;;;;;;;21.42;12.77;;;;;;;;;;5036662;28;20018;-30
2023/09/11 02:35:42;;;;;;;24.77;13.50;;;;;;;;;;5036201;28;20021;-31
2023/09/11 02:38:07;;;;;;;27.52;13.23;;;;;;;;;;5036593;28;20037;-31
2023/09/11 02:40:34;;;;;;;30.43;14.60;;;;;;;;;;5036754;28;20068;-31
2023/09/11 02:42:59;;;;;;;24.00;14.75;;;;;;;;;;5036213;28;20036;-31
2023/09/11 02:45:25;;;;;;;27.70;15.10;;;;;;;;;;5036485;28;20017;-30
2023/09/11 02:47:50;;;;;;;26.97;14.73;;;;;;;;;;5036156;28;20037;-31
2023/09/11 02:50:15;;;;;;;29.63;14.50;;;;;;;;;;5036256;28;20268;-30
2023/09/11 02:52:40;;;;;;;30.87;15.33;;;;;;;;;;5036520;28;20264;-32
2023/09/11 02:55:06;;;;;;;22.97;15.17;;;;;;;;;;5036011;28;20376;-31
2023/09/11 02:57:31;;;;;;;22.35;14.88;;;;;;;;;;5036122;28;20048;-31
2023/09/11 02:59:56;;;;;;;28.17;16.17;;;;;;;;;;5035740;28;20084;-31
2023/09/11 03:02:21;;;;;;;26.77;15.50;;;;;;;;;;5035887;28;20419;-30
2023/09/11 03:04:50;;;;;;;32.72;16.35;;;;;;;;;;5035661;28;20358;-30
2023/09/11 03:07:17;;;;;;;30.45;16.15;;;;;;;;;;5035999;28;20116;-30
2023/09/11 03:09:43;;;;;;;25.38;15.50;;;;;;;;;;5035867;28;20108;-31
2023/09/11 03:12:08;;;;;;;29.10;16.27;;;;;;;;;;5035618;28;20049;-31
2023/09/11 03:14:33;;;;;;;29.30;16.10;;;;;;;;;;5035602;28;20267;-31
2023/09/11 03:16:58;;;;;;;31.00;16.93;;;;;;;;;;5035776;28;20275;-31
2023/09/11 03:19:23;;;;;;;28.77;16.40;;;;;;;;;;5036063;28;20260;-31
2023/09/11 03:21:48;;;;;;;30.27;16.53;;;;;;;;;;5035763;28;20419;-32
2023/09/11 03:24:14;;;;;;;26.93;16.87;;;;;;;;;;5035736;28;20075;-31
2023/09/11 03:26:40;;;;;;;30.43;16.60;;;;;;;;;;5035951;28;20261;-32
2023/09/11 03:29:05;;;;;;;32.47;16.50;;;;;;;;;;5035585;28;20048;-32
2023/09/11 03:31:30;;;;;;;39.10;17.00;;;;;;;;;;5035319;28;20028;-31
2023/09/11 03:33:56;;;;;;;31.87;16.93;;;;;;;;;;5035295;28;20256;-31
2023/09/11 03:36:21;;;;;;;31.03;17.00;;;;;;;;;;5035187;28;20060;-31
2023/09/11 03:38:46;;;;;;;30.37;17.27;;;;;;;;;;5033795;28;20524;-32
2023/09/11 03:41:11;;;;;;;27.45;17.27;;;;;;;;;;5035068;28;20282;-31
2023/09/11 03:43:36;;;;;;;22.73;16.43;;;;;;;;;;5035107;28;20040;-31
2023/09/11 03:46:02;;;;;;;29.70;17.00;;;;;;;;;;5035014;28;20107;-31
2023/09/11 03:48:27;;;;;;;32.50;17.40;;;;;;;;;;5034968;28;20018;-31
2023/09/11 03:50:53;;;;;;;29.88;16.85;;;;;;;;;;5034822;28;20025;-32
2023/09/11 03:53:18;;;;;;;28.15;16.98;;;;;;;;;;5034886;28;20024;-31
2023/09/11 03:55:43;;;;;;;27.03;17.00;;;;;;;;;;5034785;28;20028;-31
2023/09/11 03:58:10;;;;;;;26.05;16.80;;;;;;;;;;5034808;28;20461;-31
2023/09/11 04:00:35;;;;;;;30.08;16.83;;;;;;;;;;5034584;28;20515;-31
2023/09/11 04:03:00;;;;;;;29.67;17.07;;;;;;;;;;5034740;28;20030;-31
2023/09/11 04:05:25;;;;;;;31.33;17.90;;;;;;;;;;5034748;28;20013;-32
2023/09/11 04:07:50;;;;;;;30.13;17.47;;;;;;;;;;5034642;28;20641;-31
2023/09/11 04:10:16;;;;;;;28.30;16.87;;;;;;;;;;5034573;28;20022;-31
2023/09/11 04:12:41;;;;;;;26.38;18.30;;;;;;;;;;5034750;28;20272;-31
2023/09/11 04:15:07;;;;;;;27.50;17.23;;;;;;;;;;5035101;28;20025;-31
2023/09/11 04:17:32;;;;;;;29.92;17.63;;;;;;;;;;5034342;28;20452;-33
2023/09/11 04:19:57;;;;;;;28.63;17.83;;;;;;;;;;5034417;28;20465;-32
2023/09/11 04:22:22;;;;;;;29.47;16.80;;;;;;;;;;5034302;28;20018;-33
2023/09/11 04:24:47;;;;;;;28.10;17.43;;;;;;;;;;5034886;28;20045;-31
2023/09/11 04:27:13;;;;;;;32.33;18.03;;;;;;;;;;5034276;28;20256;-31
2023/09/11 04:29:39;;;;;;;32.03;16.97;;;;;;;;;;5034190;28;20306;-32
2023/09/11 04:32:04;;;;;;;30.25;17.48;;;;;;;;;;5034405;28;20252;-31
2023/09/11 04:34:29;;;;;;;29.50;18.27;;;;;;;;;;5034393;28;20029;-31
2023/09/11 04:36:55;;;;;;;29.80;17.30;;;;;;;;;;5034031;28;20484;-31
2023/09/11 04:39:22;;;;;;;29.02;17.38;;;;;;;;;;5034280;28;20017;-31
2023/09/11 04:41:47;;;;;;;30.02;17.80;;;;;;;;;;5034229;28;20013;-32
2023/09/11 04:44:12;;;;;;;25.43;17.37;;;;;;;;;;5034061;28;20024;-31
2023/09/11 04:46:37;;;;;;;36.40;16.67;;;;;;;;;;5034130;28;20029;-33
2023/09/11 04:49:03;;;;;;;26.95;17.15;;;;;;;;;;5034371;28;20619;-31
2023/09/11 04:51:28;;;;;;;32.40;17.63;;;;;;;;;;5034308;28;20021;-31
2023/09/11 04:53:53;;;;;;;26.77;16.30;;;;;;;;;;5033790;28;20252;-32
2023/09/11 04:56:18;;;;;;;24.60;17.00;;;;;;;;;;5033694;28;20268;-31
2023/09/11 04:58:43;;;;;;;29.20;17.17;;;;;;;;;;5033537;28;20025;-31
2023/09/11 05:01:08;;;;;;;24.30;16.33;;;;;;;;;;5016055;28;20322;-32
2023/09/11 05:03:34;;;;;;;27.43;17.13;;;;;;;;;;5033959;28;20041;-31
2023/09/11 05:05:59;;;;;;;23.30;15.82;;;;;;;;;;5033689;28;20264;-31
2023/09/11 05:08:24;;;;;;;27.75;16.15;;;;;;;;;;5033582;28;20021;-32
2023/09/11 05:10:50;;;;;;;25.97;16.27;;;;;;;;;;5034049;28;20040;-31
2023/09/11 05:13:15;;;;;;;27.53;16.23;;;;;;;;;;5033541;28;20508;-31
2023/09/11 05:15:40;;;;;;;30.13;16.33;;;;;;;;;;5033430;28;20017;-31
2023/09/11 05:18:05;;;;;;;29.55;16.63;;;;;;;;;;5032922;28;20347;-31
2023/09/11 05:20:31;;;;;;;23.10;15.93;;;;;;;;;;5033389;28;20019;-31
2023/09/11 05:22:56;;;;;;;28.75;15.60;;;;;;;;;;5033337;28;20029;-31
2023/09/11 05:25:21;;;;;;;24.65;15.32;;;;;;;;;;5033574;28;20029;-31
2023/09/11 05:27:47;;;;;;;27.08;15.80;;;;;;;;;;5033870;28;20111;-30
2023/09/11 05:30:12;;;;;;;27.23;16.27;;;;;;;;;;5033596;28;20017;-31
2023/09/11 05:32:38;;;;;;;26.40;17.25;;;;;;;;;;5033719;28;20056;-31
2023/09/11 05:35:04;;;;;;;25.40;15.33;;;;;;;;;;5015383;28;20375;-31
2023/09/11 05:37:30;;;;;;;25.42;16.02;;;;;;;;;;5015174;28;20280;-31
2023/09/11 05:39:55;;;;;;;27.10;15.73;;;;;;;;;;5033677;28;20031;-31
2023/09/11 05:42:20;;;;;;;26.53;15.80;;;;;;;;;;5033092;28;20025;-32
2023/09/11 05:44:45;;;;;;;22.47;14.97;;;;;;;;;;5033569;28;20091;-31
2023/09/11 05:47:10;;;;;;;25.43;15.77;;;;;;;;;;5033074;28;20409;-31
2023/09/11 05:49:36;;;;;;;25.60;15.60;;;;;;;;;;5032973;28;20339;-32
2023/09/11 05:52:01;;;;;;;23.35;16.00;;;;;;;;;;5033137;28;20053;-33
2023/09/11 05:54:26;;;;;;;28.80;15.80;;;;;;;;;;5032951;28;20465;-32
2023/09/11 05:56:52;;;;;;;28.88;16.25;;;;;;;;;;5015158;28;20029;-32
2023/09/11 05:59:19;;;;;;;28.08;16.13;;;;;;;;;;5032998;28;20053;-31
2023/09/11 06:01:45;;;;;;;23.58;16.55;;;;;;;;;;5033101;28;20376;-31
2023/09/11 06:04:11;;;;;;;25.20;16.15;;;;;;;;;;5032982;28;20022;-32
2023/09/11 06:06:36;;;;;;;25.70;16.17;;;;;;;;;;5033148;28;20032;-32
2023/09/11 06:09:03;;;;;;;26.63;16.27;;;;;;;;;;5032824;28;20384;-32
2023/09/11 06:11:28;;;;;;;25.83;15.82;;;;;;;;;;5033146;28;20473;-33
2023/09/11 06:13:53;;;;;;;28.70;16.40;;;;;;;;;;5032969;28;20097;-33
2023/09/11 06:16:18;;;;;;;23.43;16.07;;;;;;;;;;5033351;28;20031;-31
2023/09/11 06:18:44;;;;;;;33.80;16.27;;;;;;;;;;5032811;28;20457;-33
2023/09/11 06:21:10;;;;;;;25.80;15.35;;;;;;;;;;5032883;28;20026;-32
2023/09/11 06:23:35;;;;;;;26.77;15.63;;;;;;;;;;5032582;28;20511;-30
2023/09/11 06:26:00;;;;;;;25.58;15.35;;;;;;;;;;5032784;28;20088;-31
2023/09/11 06:28:25;;;;;;;24.63;15.73;;;;;;;;;;5034428;28;20024;-31
2023/09/11 06:30:51;;;;;;;26.87;15.57;;;;;;;;;;5036306;28;20075;-30
2023/09/11 06:33:16;;;;;;;23.73;14.83;;;;;;;;;;5036162;28;20033;-32
2023/09/11 06:35:41;;;;;;;26.13;14.77;;;;;;;;;;5036574;28;20251;-32
2023/09/11 06:38:06;;;;;;;29.03;14.53;;;;;;;;;;5036122;28;20021;-30
2023/09/11 06:40:31;;;;;;;22.77;14.10;;;;;;;;;;5036686;28;20021;-31
2023/09/11 06:42:57;;;;;;;27.53;14.40;;;;;;;;;;5037286;28;20097;-30
2023/09/11 06:45:22;;;;;;;20.50;12.77;;;;;;;;;;5036245;28;20021;-30
2023/09/11 06:47:47;;;;;;;24.30;12.88;;;;;;;;;;5035967;28;20483;-31
2023/09/11 06:50:14;;;;;;;19.33;13.07;;;;;;;;;;5036597;28;20112;-30
2023/09/11 06:52:40;;;;;;;19.83;13.13;;;;;;;;;;5035750;28;20061;-32
2023/09/11 06:55:07;;;;;;;25.55;12.38;;;;;;;;;;5035963;28;20079;-31
2023/09/11 06:57:32;;;;;;;23.60;12.43;;;;;;;;;;5035765;28;20025;-31
2023/09/11 06:59:57;;;;;;;23.45;12.30;;;;;;;;;;5035713;28;20341;-31
2023/09/11 07:02:22;;;;;;;19.50;12.17;;;;;;;;;;5036291;28;20064;-32
2023/09/11 07:04:48;;;;;;;24.57;11.90;;;;;;;;;;5036605;28;20022;-32
2023/09/11 07:07:13;;;;;;;19.30;10.80;;;;;;;;;;5036020;28;20105;-31
2023/09/11 07:09:39;;;;;;;29.45;10.93;;;;;;;;;;5035975;28;20045;-32
2023/09/11 07:12:04;;;;;;;19.77;10.00;;;;;;;;;;5035726;28;20033;-31
2023/09/11 07:14:29;;;;;;;20.65;9.63;;;;;;;;;;5036186;28;20028;-31
2023/09/11 07:16:55;;;;;;;17.33;8.90;;;;;;;;;;5035529;28;20482;-32
2023/09/11 07:19:22;;;;;;;19.77;9.32;;;;;;;;;;5035488;28;20518;-32
2023/09/11 07:21:47;;;;;;;16.10;8.55;;;;;;;;;;5034861;28;20029;-32
2023/09/11 07:24:12;;;;;;;16.80;8.20;;;;;;;;;;5034721;28;20009;-32
2023/09/11 07:26:38;;;;;;;18.93;8.37;;;;;;;;;;5034562;28;20040;-32
2023/09/11 07:29:03;;;;;;;19.53;8.33;;;;;;;;;;5034681;28;20013;-31
2023/09/11 07:31:29;;;;;;;17.25;8.10;;;;;;;;;;5034703;28;20017;-31
2023/09/11 07:33:54;;;;;;;18.13;8.10;;;;;;;;;;5034647;28;20486;-31
2023/09/11 07:36:19;;;;;;;18.07;8.03;;;;;;;;;;5035250;28;20029;-32
2023/09/11 07:38:45;;;;;;;16.70;7.90;;;;;;;;;;5017305;28;20017;-32
2023/09/11 07:41:10;;;;;;;13.82;7.10;;;;;;;;;;5033756;28;20264;-33
2023/09/11 07:43:36;;;;;;;10.40;7.20;;;;;;;;;;5034845;28;20020;-32
2023/09/11 07:46:01;;;;;;;13.87;7.30;;;;;;;;;;5034194;28;20021;-32
2023/09/11 07:48:26;;;;;;;15.30;7.47;;;;;;;;;;5033211;28;20376;-32
2023/09/11 07:50:55;;;;;;;13.87;7.47;;;;;;;;;;5034252;28;20112;-32
2023/09/11 07:53:21;;;;;;;16.85;7.60;;;;;;;;;;5034304;28;20104;-31
2023/09/11 07:55:46;;;;;;;21.27;7.63;;;;;;;;;;5034624;28;20053;-32
2023/09/11 07:58:12;;;;;;;20.30;8.40;;;;;;;;;;5033569;28;20056;-31
2023/09/11 08:00:37;;;;;;;16.92;7.80;;;;;;;;;;5034426;28;20046;-32
2023/09/11 08:03:03;;;;;;;14.77;7.67;;;;;;;;;;5034697;28;20096;-31
2023/09/11 08:05:28;;;;;;;13.13;7.32;;;;;;;;;;5034925;28;20021;-32
2023/09/11 08:07:53;;;;;;;14.80;7.60;;;;;;;;;;5034921;28;20345;-31
2023/09/11 08:10:18;;;;;;;12.80;7.60;;;;;;;;;;5035021;28;20157;-32
2023/09/11 08:12:43;;;;;;;16.13;7.60;;;;;;;;;;5034445;28;20014;-32
2023/09/11 08:15:09;;;;;;;14.30;6.73;;;;;;;;;;5032430;28;20431;-32
2023/09/11 08:17:34;;;;;;;14.77;7.45;;;;;;;;;;5033512;28;20049;-32
2023/09/11 08:19:59;;;;;;;13.73;7.00;;;;;;;;;;5034904;28;20044;-32
2023/09/11 08:22:25;;;;;;;18.13;7.27;;;;;;;;;;5034153;28;20021;-32
2023/09/11 08:24:50;;;;;;;16.90;7.30;;;;;;;;;;5016558;28;20057;-32
2023/09/11 08:27:15;;;;;;;14.93;7.33;;;;;;;;;;5034790;28;20018;-32
2023/09/11 08:29:40;;;;;;;12.77;7.15;;;;;;;;;;5034673;28;20033;-33
2023/09/11 08:32:06;;;;;;;12.33;7.07;;;;;;;;;;5034220;28;20372;-33
2023/09/11 08:34:31;;;;;;;11.03;7.50;;;;;;;;;;5034160;28;20362;-32
2023/09/11 08:36:57;;;;;;;17.40;7.20;;;;;;;;;;5033258;28;20132;-32
2023/09/11 08:39:23;;;;;;;12.60;7.63;;;;;;;;;;5034081;28;20253;-31
2023/09/11 08:41:50;;;;;;;16.90;8.98;;;;;;;;;;5034137;28;20129;-32
2023/09/11 08:44:15;;;;;;;20.75;7.65;;;;;;;;;;5033888;28;20079;-32
2023/09/11 08:46:42;;;;;;;16.35;7.43;;;;;;;;;;5033932;28;20479;-32
2023/09/11 08:49:07;;;;;;;15.15;7.32;;;;;;;;;;5033808;28;20380;-32
2023/09/11 08:51:37;;;;;;;13.27;7.10;;;;;;;;;;5033593;28;20017;-32
2023/09/11 08:54:04;;;;;;;15.50;7.20;;;;;;;;;;5033687;28;20114;-32
2023/09/11 08:56:29;;;;;;;15.23;7.93;;;;;;;;;;5033633;28;20100;-32
2023/09/11 08:58:54;;;;;;;17.08;7.90;;;;;;;;;;5033967;28;20081;-32
2023/09/11 09:01:21;;;;;;;15.55;7.47;;;;;;;;;;5033569;28;20021;-32
2023/09/11 09:03:46;;;;;;;15.10;6.82;;;;;;;;;;5033594;28;20380;-32
2023/09/11 09:06:12;;;;;;;13.38;6.50;;;;;;;;;;5033779;28;20018;-32
2023/09/11 09:08:37;;;;;;;15.02;6.20;;;;;;;;;;5033527;28;20423;-32
2023/09/11 09:11:02;;;;;;;13.37;6.20;;;;;;;;;;5034057;28;20021;-32
2023/09/11 09:13:32;;;;;;;12.50;6.15;;;;;;;;;;5033377;28;20264;-32
2023/09/11 09:15:58;;;;;;;11.40;6.22;;;;;;;;;;5033285;28;20028;-33
2023/09/11 09:18:23;;;;;;;8.27;5.43;;;;;;;;;;5015713;28;20013;-32
2023/09/11 09:20:48;;;;;;;12.27;5.97;;;;;;;;;;5033502;28;20092;-32
2023/09/11 09:23:16;;;;;;;11.60;6.30;;;;;;;;;;5033365;28;20017;-33
2023/09/11 09:25:41;;;;;;;11.68;5.88;;;;;;;;;;5033778;28;20324;-33
2023/09/11 09:28:07;;;;;;;11.05;4.90;;;;;;;;;;5033729;28;20096;-33
2023/09/11 09:30:32;;;;;;;12.20;5.00;;;;;;;;;;5033386;28;20097;-33
2023/09/11 09:32:57;;;;;;;12.57;4.93;;;;;;;;;;5033398;28;20765;-32
2023/09/11 09:35:26;;;;;;;8.98;5.05;;;;;;;;;;5033249;28;20380;-32
2023/09/11 09:37:52;;;;;;;16.27;4.70;;;;;;;;;;5032893;28;20068;-32
2023/09/11 09:40:28;;;;;;;8.10;4.40;;;;;;;;;;5033065;28;20068;-32
2023/09/11 09:42:54;;;;;;;10.90;4.40;;;;;;;;;;5033873;28;20049;-32
2023/09/11 09:45:39;;;;;;;10.67;4.50;;;;;;;;;;5015525;28;20017;-32
2023/09/11 09:48:05;;;;;;;8.02;4.25;;;;;;;;;;5033153;28;20028;-32
2023/09/11 09:50:45;;;;;;;10.80;4.13;;;;;;;;;;5015368;28;20078;-32
2023/09/11 09:53:19;;;;;;;14.85;4.75;;;;;;;;;;5033658;28;20026;-31
2023/09/11 09:55:44;;;;;;;9.93;4.43;;;;;;;;;;5033610;28;20411;-32
2023/09/11 09:58:11;;;;;;;13.43;4.40;;;;;;;;;;5033110;28;20025;-32
2023/09/11 10:00:36;;;;;;;11.00;4.40;;;;;;;;;;5032913;28;20053;-32
2023/09/11 10:03:02;;;;;;;10.80;4.40;;;;;;;;;;5033810;28;20368;-32
2023/09/11 10:05:27;;;;;;;12.20;4.25;;;;;;;;;;5019995;28;20024;-32
2023/09/11 10:07:52;;;;;;;7.90;4.20;;;;;;;;;;5036943;28;20024;-31
2023/09/11 10:10:22;;;;;;;9.15;4.00;;;;;;;;;;5037100;28;20025;-32
2023/09/11 10:13:06;;;;;;;16.88;4.55;;;;;;;;;;5037052;28;20075;-32
2023/09/11 10:15:33;;;;;;;11.07;4.45;;;;;;;;;;5037333;28;20495;-32
2023/09/11 10:17:58;;;;;;;16.58;4.47;;;;;;;;;;5036558;28;20380;-33
2023/09/11 10:20:24;;;;;;;11.55;4.53;;;;;;;;;;5036596;28;20022;-32
2023/09/11 10:22:54;;;;;;;6.57;3.70;;;;;;;;;;5036639;28;20017;-32
2023/09/11 10:25:21;;;;;;;14.48;4.38;;;;;;;;;;5037072;28;20097;-32
2023/09/11 10:27:48;;;;;;;9.25;4.18;;;;;;;;;;5036808;28;20423;-31
2023/09/11 10:30:15;;;;;;;10.10;4.25;;;;;;;;;;5036386;28;20014;-32
2023/09/11 10:32:45;;;;;;;13.23;4.07;;;;;;;;;;5036948;28;20040;-33
2023/09/11 10:35:10;;;;;;;12.40;3.90;;;;;;;;;;5036368;28;20096;-32
2023/09/11 10:37:38;;;;;;;14.67;4.13;;;;;;;;;;5036839;28;20429;-32
2023/09/11 10:40:05;;;;;;;12.10;3.97;;;;;;;;;;5036698;28;20284;-32
2023/09/11 10:42:30;;;;;;;9.82;4.10;;;;;;;;;;5036078;28;20017;-32
2023/09/11 10:44:55;;;;;;;11.83;3.97;;;;;;;;;;5035814;28;20017;-32
2023/09/11 10:47:22;;;;;;;8.38;3.92;;;;;;;;;;5035031;28;20268;-32
2023/09/11 10:49:48;;;;;;;12.50;3.85;;;;;;;;;;5035230;28;20525;-32
2023/09/11 10:52:13;;;;;;;10.75;4.05;;;;;;;;;;5034966;28;20020;-32
2023/09/11 10:54:40;;;;;;;8.63;3.67;;;;;;;;;;5036006;28;20453;-32
2023/09/11 10:57:05;;;;;;;8.27;3.72;;;;;;;;;;5035806;28;20280;-31
2023/09/11 10:59:31;;;;;;;7.10;3.30;;;;;;;;;;5035770;28;20053;-31
2023/09/11 11:01:57;;;;;;;12.75;3.70;;;;;;;;;;5035770;28;20723;-32
2023/09/11 11:04:24;;;;;;;7.93;3.45;;;;;;;;;;5036003;28;20018;-32
2023/09/11 11:06:52;;;;;;;10.95;3.70;;;;;;;;;;5035984;28;20017;-32
2023/09/11 11:09:33;;;;;;;10.48;3.70;;;;;;;;;;5036203;28;20025;-31
2023/09/11 11:12:10;;;;;;;8.63;3.50;;;;;;;;;;5035818;28;20025;-32
2023/09/11 11:14:36;;;;;;;13.93;3.42;;;;;;;;;;5034306;28;20040;-32
2023/09/11 11:17:03;;;;;;;7.72;3.45;;;;;;;;;;5035702;28;20018;-33
2023/09/11 11:19:35;;;;;;;9.40;3.63;;;;;;;;;;5035822;28;20025;-32
2023/09/11 11:22:01;;;;;;;8.90;3.60;;;;;;;;;;5035427;28;20021;-32
2023/09/11 11:24:29;;;;;;;9.48;3.58;;;;;;;;;;5035577;28;20128;-32
2023/09/11 11:26:55;;;;;;;11.60;3.53;;;;;;;;;;5035855;28;20022;-32
2023/09/11 11:29:21;;;;;;;7.20;3.90;;;;;;;;;;5035519;28;20379;-31
2023/09/11 11:31:50;;;;;;;8.55;3.58;;;;;;;;;;5035473;28;20029;-30
2023/09/11 11:34:18;;;;;;;9.20;3.55;;;;;;;;;;5035094;28;20017;-32
2023/09/11 11:36:44;;;;;;;10.50;3.58;;;;;;;;;;5035333;28;20013;-32
2023/09/11 11:39:10;;;;;;;9.45;4.53;;;;;;;;;;5035248;28;20017;-31
2023/09/11 11:41:36;;;;;;;14.10;4.38;;;;;;;;;;5035463;28;20017;-31
2023/09/11 11:44:01;;;;;;;10.25;4.22;;;;;;;;;;5035363;28;20570;-31
2023/09/11 11:46:28;;;;;;;14.40;4.43;;;;;;;;;;5035140;28;20049;-33
2023/09/11 11:48:53;;;;;;;8.05;4.30;;;;;;;;;;5035789;28;20256;-33
2023/09/11 11:51:31;;;;;;;11.13;4.32;;;;;;;;;;5034782;28;20076;-31
2023/09/11 11:53:57;;;;;;;9.65;4.40;;;;;;;;;;5034932;28;20022;-32
2023/09/11 11:56:23;;;;;;;13.10;4.72;;;;;;;;;;5034634;28;20032;-32
2023/09/11 11:58:49;;;;;;;17.98;5.40;;;;;;;;;;5016801;28;20021;-32
2023/09/11 12:01:14;;;;;;;8.10;4.20;;;;;;;;;;5034635;28;20029;-32
2023/09/11 12:03:47;;;;;;;12.33;5.00;;;;;;;;;;5035005;28;20024;-32
2023/09/11 12:06:13;;;;;;;15.55;5.32;;;;;;;;;;5016873;28;20053;-32
2023/09/11 12:08:38;;;;;;;12.73;5.13;;;;;;;;;;5034612;28;20503;-32
2023/09/11 12:11:07;;;;;;;13.43;5.20;;;;;;;;;;5034555;28;20025;-32
2023/09/11 12:13:32;;;;;;;11.90;4.95;;;;;;;;;;5034771;28;20041;-31
2023/09/11 12:15:59;;;;;;;16.57;5.90;;;;;;;;;;5016654;28;21916;-31
2023/09/11 12:18:24;;;;;;;11.68;4.95;;;;;;;;;;5034699;28;20106;-33
2023/09/11 12:21:08;;;;;;;10.73;5.53;;;;;;;;;;5034441;28;20022;-32
2023/09/11 12:23:34;;;;;;;13.95;5.70;;;;;;;;;;5034625;28;20024;-31
2023/09/11 12:26:01;;;;;;;9.75;5.10;;;;;;;;;;5034189;28;20025;-31
2023/09/11 12:28:26;;;;;;;12.20;5.93;;;;;;;;;;5034541;28;20380;-32
2023/09/11 12:30:51;;;;;;;17.00;6.43;;;;;;;;;;5034473;28;20018;-32
2023/09/11 12:33:23;;;;;;;13.35;5.85;;;;;;;;;;5034100;28;20415;-32
2023/09/11 12:35:51;;;;;;;;;;;;;;;;;;5034740;28;20413;-31
2023/09/11 12:38:16;;;;;;;13.70;6.80;;;;;;;;;;5034342;28;20315;-33
2023/09/11 12:40:45;;;;;;;14.37;6.20;;;;;;;;;;5034089;28;20021;-32
2023/09/11 12:43:11;;;;;;;18.42;6.95;;;;;;;;;;5034583;28;20021;-32
2023/09/11 12:45:36;;;;;;;20.10;7.00;;;;;;;;;;5033936;28;20100;-31
2023/09/11 12:48:02;;;;;;;13.68;8.15;;;;;;;;;;5034274;28;20475;-32
2023/09/11 12:50:29;;;;;;;16.45;7.28;;;;;;;;;;5016063;28;20109;-32
2023/09/11 12:52:59;;;;;;;17.70;7.88;;;;;;;;;;5016221;28;20041;-32
2023/09/11 12:55:28;;;;;;;16.13;7.82;;;;;;;;;;5033807;28;20060;-31
2023/09/11 12:57:56;;;;;;;21.60;9.48;;;;;;;;;;5033655;28;20491;-32
2023/09/11 13:00:22;;;;;;;19.23;8.45;;;;;;;;;;5015852;28;20045;-31
2023/09/11 13:02:47;;;;;;;16.15;8.30;;;;;;;;;;5034296;28;20027;-32
2023/09/11 13:05:12;;;;;;;17.33;8.37;;;;;;;;;;5034156;28;20079;-32
2023/09/11 13:07:37;;;;;;;21.07;9.83;;;;;;;;;;5033713;28;20026;-32
2023/09/11 13:10:03;;;;;;;18.92;9.75;;;;;;;;;;5015829;28;20464;-32
2023/09/11 13:12:29;;;;;;;19.42;10.35;;;;;;;;;;5033436;28;20025;-31
2023/09/11 13:14:54;;;;;;;18.58;11.07;;;;;;;;;;5015862;28;20021;-32
2023/09/11 13:17:19;;;;;;;20.70;11.70;;;;;;;;;;5033911;28;20025;-31
2023/09/11 13:19:45;;;;;;;26.33;12.30;;;;;;;;;;5033733;28;20022;-32
2023/09/11 13:22:10;;;;;;;23.33;12.47;;;;;;;;;;5033462;28;20013;-32
2023/09/11 13:24:35;;;;;;;23.70;13.30;;;;;;;;;;5033656;28;20017;-32
2023/09/11 13:27:00;;;;;;;27.13;13.47;;;;;;;;;;5033616;28;20028;-32
2023/09/11 13:29:25;;;;;;;19.50;12.15;;;;;;;;;;5033207;28;20048;-32
2023/09/11 13:31:51;;;;;;;23.02;13.00;;;;;;;;;;5033923;28;20033;-31
2023/09/11 13:34:16;;;;;;;23.33;12.57;;;;;;;;;;5033450;28;20021;-32
2023/09/11 13:36:41;;;;;;;27.33;13.18;;;;;;;;;;5032135;28;20025;-32
2023/09/11 13:39:06;;;;;;;23.10;13.63;;;;;;;;;;5036393;28;20024;-31
2023/09/11 13:41:32;;;;;;;24.80;13.83;;;;;;;;;;5037965;28;20260;-31
2023/09/11 13:43:57;;;;;;;27.17;13.60;;;;;;;;;;5037628;28;20044;-32
2023/09/11 13:46:22;;;;;;;24.20;13.02;;;;;;;;;;5037278;28;20480;-32
2023/09/11 13:48:47;;;;;;;21.27;12.10;;;;;;;;;;5037269;28;20104;-32
2023/09/11 13:51:13;;;;;;;21.38;12.45;;;;;;;;;;5036781;28;20264;-32
2023/09/11 13:53:38;;;;;;;20.13;12.10;;;;;;;;;;5036752;28;20070;-32
2023/09/11 13:56:03;;;;;;;22.80;12.57;;;;;;;;;;5037286;28;20101;-32
2023/09/11 13:58:28;;;;;;;21.20;13.60;;;;;;;;;;5019955;28;20592;-32
2023/09/11 14:00:54;;;;;;;26.70;12.87;;;;;;;;;;5036768;28;20079;-31
2023/09/11 14:03:19;;;;;;;24.23;12.73;;;;;;;;;;5036907;28;20013;-32
2023/09/11 14:05:44;;;;;;;33.30;14.43;;;;;;;;;;5036130;28;20026;-32
2023/09/11 14:08:09;;;;;;;22.63;13.47;;;;;;;;;;5037100;28;20029;-32
2023/09/11 14:10:34;;;;;;;24.30;13.33;;;;;;;;;;5037289;28;20014;-32
2023/09/11 14:13:00;;;;;;;22.98;14.65;;;;;;;;;;5036671;28;20025;-32
2023/09/11 14:15:25;;;;;;;20.63;13.63;;;;;;;;;;5037229;28;20022;-32
2023/09/11 14:17:50;;;;;;;22.40;13.73;;;;;;;;;;5043767;22;20340;-68